Time;durP1;ratioP1;P1;durP2;ratioP2;P2;SDS_P1;SDS_P2;PMS_P1;PMS_P2;Temp;Humidity;BMP_temperature;BMP_pressure;BME280_temperature;BME280_humidity;BME280_pressure;Samples;Min_cycle;Max_cycle;Signal;HPM_P1;HPM_P2
2022/12/18 00:05:24;;;;;;;68.55;34.60;;;-4.90;99.90;;;;;;12566896;28;20045;-84
2022/12/18 00:11:29;;;;;;;63.00;31.52;;;-4.80;99.90;;;;;;12556880;28;20131;-85
2022/12/18 00:17:30;;;;;;;62.20;32.10;;;-5.10;99.90;;;;;;12582663;28;20049;-84
2022/12/18 00:23:33;;;;;;;54.58;26.77;;;-5.50;99.90;;;;;;12576986;28;20512;-84
2022/12/18 00:29:35;;;;;;;69.40;34.10;;;-6.00;99.90;;;;;;12574309;28;20053;-84
2022/12/18 00:35:37;;;;;;;57.22;28.92;;;-6.20;99.90;;;;;;12579696;28;20511;-84
2022/12/18 00:48:02;;;;;;;56.50;25.75;;;-6.80;99.90;;;;;;12579494;28;20052;-84
2022/12/18 00:54:05;;;;;;;49.38;23.23;;;-7.10;99.90;;;;;;12595512;28;20053;-84
2022/12/18 01:00:10;;;;;;;25.30;12.77;;;-7.00;99.90;;;;;;12589545;28;20047;-84
2022/12/18 01:06:13;;;;;;;42.75;20.27;;;-6.90;99.90;;;;;;12580321;28;20052;-84
2022/12/18 01:12:15;;;;;;;44.63;20.85;;;-6.80;99.90;;;;;;12574957;28;20056;-84
2022/12/18 01:18:17;;;;;;;44.30;21.92;;;-7.00;99.90;;;;;;12581286;28;20515;-84
2022/12/18 01:24:19;;;;;;;44.05;21.35;;;-7.20;99.90;;;;;;12566704;28;20082;-85
2022/12/18 01:30:21;;;;;;;44.60;22.92;;;-7.30;99.90;;;;;;12574804;28;20101;-84
2022/12/18 01:36:26;;;;;;;59.03;28.67;;;-7.20;99.90;;;;;;12575802;28;20075;-84
2022/12/18 01:42:28;;;;;;;60.60;30.55;;;-7.30;99.90;;;;;;12599755;28;20040;-85
2022/12/18 01:48:30;;;;;;;60.78;32.03;;;-7.40;99.90;;;;;;12571379;28;20060;-84
2022/12/18 01:54:32;;;;;;;64.57;30.95;;;-7.60;99.90;;;;;;12585522;28;20040;-84
2022/12/18 02:00:34;;;;;;;65.95;30.13;;;-7.70;99.90;;;;;;12585302;28;20416;-84
2022/12/18 02:06:41;;;;;;;59.95;28.40;;;-7.80;99.90;;;;;;12606970;28;20166;-84
2022/12/18 02:12:56;;;;;;;57.97;29.05;;;-7.80;99.90;;;;;;12588301;28;20775;-84
2022/12/18 02:19:05;;;;;;;58.50;28.33;;;-7.60;99.90;;;;;;12578200;28;20072;-84
2022/12/18 02:25:21;;;;;;;52.63;25.10;;;-7.90;99.90;;;;;;12585892;28;20040;-84
2022/12/18 02:31:28;;;;;;;52.03;24.25;;;-8.00;99.90;;;;;;12565185;28;20405;-84
2022/12/18 02:37:32;;;;;;;45.83;22.42;;;-8.00;99.90;;;;;;12581227;28;20056;-84
2022/12/18 02:43:34;;;;;;;49.70;23.65;;;-8.00;99.90;;;;;;12581523;28;20059;-84
2022/12/18 02:49:45;;;;;;;46.75;21.80;;;-8.00;99.90;;;;;;12594982;28;20044;-84
2022/12/18 02:55:50;;;;;;;47.17;22.60;;;-8.10;99.90;;;;;;12574077;28;20049;-84
2022/12/18 03:02:08;;;;;;;51.88;24.67;;;-7.90;99.90;;;;;;12578917;28;20044;-84
2022/12/18 03:08:25;;;;;;;39.45;20.25;;;-7.90;99.90;;;;;;12570560;28;20477;-84
2022/12/18 03:14:30;;;;;;;34.25;15.77;;;-8.10;99.90;;;;;;12587611;28;20504;-84
2022/12/18 03:20:35;;;;;;;40.83;17.27;;;-8.10;99.90;;;;;;12586265;28;20045;-84
2022/12/18 03:26:41;;;;;;;34.70;15.35;;;-8.20;99.90;;;;;;12590055;28;20044;-84
2022/12/18 03:33:11;;;;;;;33.72;16.77;;;-8.40;99.90;;;;;;12541353;28;20083;-84
2022/12/18 03:39:13;;;;;;;40.63;17.17;;;-8.20;99.90;;;;;;12525739;28;20187;-84
2022/12/18 03:45:32;;;;;;;33.15;16.05;;;-8.10;99.90;;;;;;12527894;28;20488;-84
2022/12/18 03:51:52;;;;;;;26.17;12.02;;;-8.10;99.90;;;;;;12540264;28;20056;-84
2022/12/18 03:57:55;;;;;;;28.20;13.85;;;-8.20;99.90;;;;;;12527886;28;20049;-84
2022/12/18 04:03:59;;;;;;;17.40;8.98;;;-8.30;99.90;;;;;;12540891;28;20052;-84
2022/12/18 04:10:02;;;;;;;;;;;-8.30;99.90;;;;;;12541040;28;20072;-84
2022/12/18 04:16:04;;;;;;;15.43;7.80;;;-8.40;99.90;;;;;;12534396;28;19925;-84
2022/12/18 04:22:06;;;;;;;20.08;9.65;;;-8.40;99.90;;;;;;12532023;28;20052;-84
2022/12/18 04:28:08;;;;;;;15.85;7.53;;;-8.40;99.90;;;;;;12540159;28;20049;-84
2022/12/18 04:34:10;;;;;;;16.98;7.53;;;-8.20;99.90;;;;;;12578028;28;20043;-84
2022/12/18 04:40:12;;;;;;;14.45;6.53;;;-8.30;99.90;;;;;;12552651;28;20041;-84
2022/12/18 04:46:14;;;;;;;16.05;6.55;;;-8.20;99.90;;;;;;12583076;28;20062;-84
2022/12/18 04:52:16;;;;;;;16.52;6.35;;;-8.10;99.90;;;;;;12598739;28;20503;-84
2022/12/18 04:58:18;;;;;;;18.95;6.78;;;-8.10;99.90;;;;;;12587318;28;20060;-84
2022/12/18 05:04:20;;;;;;;16.00;6.35;;;-8.00;99.90;;;;;;12566752;28;20103;-84
2022/12/18 05:10:21;;;;;;;14.20;6.57;;;-8.00;99.90;;;;;;12582885;28;20515;-84
2022/12/18 05:16:23;;;;;;;14.00;5.70;;;-8.00;99.90;;;;;;12587225;28;20055;-84
2022/12/18 05:22:25;;;;;;;11.73;5.07;;;-8.00;99.90;;;;;;12579342;28;20057;-84
2022/12/18 05:28:28;;;;;;;13.13;5.97;;;-8.00;99.90;;;;;;12598396;28;20057;-84
2022/12/18 05:34:30;;;;;;;13.77;6.05;;;-8.00;99.90;;;;;;12582361;28;20045;-84
2022/12/18 05:40:32;;;;;;;15.65;6.93;;;-8.00;99.90;;;;;;12574427;28;20044;-84
2022/12/18 05:46:34;;;;;;;16.45;7.13;;;-8.10;99.90;;;;;;12594216;28;20067;-84
2022/12/18 05:52:36;;;;;;;16.38;6.75;;;-8.10;99.90;;;;;;12582489;28;20045;-84
2022/12/18 05:58:38;;;;;;;14.68;7.00;;;-8.10;99.90;;;;;;12595016;28;20048;-84
2022/12/18 06:04:39;;;;;;;13.60;6.55;;;-8.10;99.90;;;;;;12576209;28;20043;-84
2022/12/18 06:10:42;;;;;;;15.15;7.47;;;-8.10;99.90;;;;;;12577262;28;20049;-84
2022/12/18 06:16:44;;;;;;;17.48;7.38;;;-8.10;99.90;;;;;;12576310;28;20588;-84
2022/12/18 06:22:45;;;;;;;16.45;7.03;;;-8.20;99.90;;;;;;12570967;28;20044;-84
2022/12/18 06:28:47;;;;;;;19.75;8.10;;;-8.30;99.90;;;;;;12578451;28;20052;-84
2022/12/18 06:34:49;;;;;;;17.95;8.20;;;-8.20;99.90;;;;;;12553474;28;20063;-84
2022/12/18 06:40:51;;;;;;;18.77;7.40;;;-8.30;99.90;;;;;;12590206;28;20409;-84
2022/12/18 06:46:52;;;;;;;14.85;7.10;;;-8.30;99.90;;;;;;12581888;28;20094;-84
2022/12/18 06:52:54;;;;;;;18.48;8.52;;;-8.20;99.90;;;;;;12587334;28;20048;-84
2022/12/18 06:58:56;;;;;;;19.60;8.25;;;-8.20;99.90;;;;;;12588055;28;20040;-84
2022/12/18 07:04:58;;;;;;;16.38;7.55;;;-8.20;99.90;;;;;;12570432;28;20226;-85
2022/12/18 07:11:03;;;;;;;17.00;7.43;;;-8.20;99.90;;;;;;12567546;28;20056;-84
2022/12/18 07:17:05;;;;;;;19.02;9.05;;;-8.30;99.90;;;;;;12595762;28;20057;-84
2022/12/18 07:23:07;;;;;;;25.95;10.52;;;-8.30;99.90;;;;;;12593255;28;20457;-85
2022/12/18 07:29:09;;;;;;;23.83;8.68;;;-8.40;99.90;;;;;;12587676;28;20078;-84
2022/12/18 07:35:10;;;;;;;18.75;8.52;;;-8.50;99.90;;;;;;12599462;28;20041;-85
2022/12/18 07:41:13;;;;;;;12.30;6.13;;;-8.80;99.90;;;;;;12567393;28;20036;-84
2022/12/18 07:47:15;;;;;;;16.17;6.18;;;-8.80;99.90;;;;;;12588813;28;20829;-84
2022/12/18 07:53:16;;;;;;;13.82;5.57;;;-7.80;99.90;;;;;;12587176;28;20527;-84
2022/12/18 07:59:18;;;;;;;15.68;8.00;;;-7.00;99.90;;;;;;12570739;28;20075;-85
2022/12/18 08:05:20;;;;;;;20.13;8.63;;;-7.00;99.90;;;;;;12569703;28;20067;-85
2022/12/18 08:11:24;;;;;;;19.08;7.10;;;-7.20;99.90;;;;;;12588818;28;20382;-85
2022/12/18 08:17:26;;;;;;;23.92;9.30;;;-7.40;99.90;;;;;;12580713;28;20071;-85
2022/12/18 08:23:28;;;;;;;19.08;9.45;;;-7.30;99.90;;;;;;12569887;28;20420;-85
2022/12/18 08:29:30;;;;;;;19.02;8.95;;;-7.20;99.90;;;;;;12556655;28;20052;-84
2022/12/18 08:35:36;;;;;;;16.13;8.07;;;-7.10;99.90;;;;;;12593572;28;20045;-85
2022/12/18 08:44:37;;;;;;;16.63;8.07;;;-6.90;99.90;;;;;;12583584;28;20561;-85
2022/12/18 08:48:11;;;;;;;23.70;8.98;;;-6.60;99.90;;;;;;12605382;28;20290;-85
2022/12/18 08:54:13;;;;;;;19.92;8.15;;;-6.50;99.90;;;;;;12560232;28;20045;-85
2022/12/18 09:00:15;;;;;;;13.75;6.20;;;-6.20;99.90;;;;;;12581519;28;20079;-85
2022/12/18 09:06:19;;;;;;;14.63;6.45;;;-4.60;99.90;;;;;;12592232;28;20063;-85
2022/12/18 09:12:21;;;;;;;11.40;5.22;;;-3.70;99.90;;;;;;12589087;28;20076;-85
2022/12/18 09:18:24;;;;;;;9.05;4.18;;;-3.20;99.90;;;;;;12576299;28;20396;-85
2022/12/18 09:24:26;;;;;;;10.20;4.22;;;-2.90;99.90;;;;;;12583387;28;20044;-85
2022/12/18 09:30:28;;;;;;;6.57;3.70;;;-2.70;99.90;;;;;;12592118;28;20040;-85
2022/12/18 09:36:29;;;;;;;9.30;3.83;;;-2.50;99.90;;;;;;12596468;28;20122;-85
2022/12/18 09:42:31;;;;;;;7.03;3.30;;;-2.40;99.90;;;;;;12577508;28;20032;-85
2022/12/18 09:48:41;;;;;;;10.35;3.42;;;-2.30;99.90;;;;;;12583921;28;20044;-85
2022/12/18 09:54:53;;;;;;;8.20;3.10;;;-2.20;99.90;;;;;;12593081;28;20364;-85
2022/12/18 10:00:55;;;;;;;6.30;2.95;;;-2.00;99.90;;;;;;12587536;28;20109;-85
2022/12/18 10:07:22;;;;;;;9.38;2.80;;;-1.90;99.90;;;;;;12587523;28;20469;-85
2022/12/18 10:13:35;;;;;;;5.65;2.33;;;-1.60;99.90;;;;;;12558542;28;20040;-85
2022/12/18 10:19:49;;;;;;;5.47;2.60;;;-1.50;99.90;;;;;;12593766;28;20382;-85
2022/12/18 10:26:02;;;;;;;6.33;2.60;;;-1.40;99.90;;;;;;12576805;28;20048;-86
2022/12/18 10:32:04;;;;;;;4.65;2.17;;;-1.30;99.90;;;;;;12579186;28;20381;-85
2022/12/18 10:38:21;;;;;;;5.72;2.38;;;-1.00;99.90;;;;;;12594604;28;20048;-85
2022/12/18 10:44:26;;;;;;;5.40;2.03;;;-0.80;99.90;;;;;;12581368;28;20075;-86
2022/12/18 10:50:37;;;;;;;8.63;2.03;;;-0.70;99.90;;;;;;12588332;28;20055;-86
2022/12/18 10:57:35;;;;;;;3.83;2.00;;;-0.60;99.90;;;;;;12575790;28;20083;-85
2022/12/18 11:04:05;;;;;;;5.57;2.05;;;-0.50;99.90;;;;;;12565094;28;20419;-85
2022/12/18 11:10:20;;;;;;;6.18;2.42;;;-0.30;99.90;;;;;;12574024;28;20059;-85
2022/12/18 11:16:21;;;;;;;;;;;-0.20;99.90;;;;;;12591396;28;20052;-85
2022/12/18 11:22:34;;;;;;;5.35;1.92;;;-0.30;99.90;;;;;;12586178;28;19947;-85
2022/12/18 11:28:46;;;;;;;6.22;2.65;;;-0.50;99.90;;;;;;12557270;28;20056;-85
2022/12/18 11:34:53;;;;;;;7.53;2.53;;;-0.70;99.90;;;;;;12562765;28;20051;-85
2022/12/18 11:41:14;;;;;;;5.22;2.75;;;-0.90;99.90;;;;;;12584834;28;20416;-86
2022/12/18 11:47:22;;;;;;;7.70;2.80;;;-0.80;99.90;;;;;;12567798;28;20064;-85
2022/12/18 11:53:25;;;;;;;5.78;2.50;;;-0.80;99.90;;;;;;12587059;28;20052;-86
2022/12/18 11:59:38;;;;;;;5.13;2.70;;;-0.70;99.90;;;;;;12576043;28;20051;-85
2022/12/18 12:06:14;;;;;;;5.93;2.63;;;-0.70;99.90;;;;;;12579766;28;20409;-85
2022/12/18 12:12:25;;;;;;;6.05;2.85;;;-0.70;99.90;;;;;;12567684;28;20044;-85
2022/12/18 12:18:40;;;;;;;5.55;2.85;;;-0.70;99.90;;;;;;12561477;28;20053;-85
2022/12/18 12:25:25;;;;;;;5.55;2.25;;;-0.70;99.90;;;;;;12571665;28;20036;-85
2022/12/18 12:32:08;;;;;;;9.47;3.10;;;-0.60;99.90;;;;;;12566239;28;20052;-85
2022/12/18 12:38:24;;;;;;;6.72;2.63;;;-0.60;99.90;;;;;;12589159;28;20055;-85
2022/12/18 12:44:30;;;;;;;6.93;3.00;;;-0.60;99.90;;;;;;12591553;28;20063;-86
2022/12/18 12:50:35;;;;;;;5.63;2.88;;;-0.50;99.90;;;;;;12593490;28;20040;-85
2022/12/18 12:56:45;;;;;;;5.50;2.90;;;-0.50;99.90;;;;;;12584725;28;20048;-86
2022/12/18 13:03:03;;;;;;;8.45;2.75;;;-0.50;99.90;;;;;;12567074;28;20485;-85
2022/12/18 13:09:05;;;;;;;7.00;2.55;;;-0.50;99.90;;;;;;12584829;28;20049;-85
2022/12/18 13:15:32;;;;;;;5.95;2.95;;;-0.50;99.90;;;;;;12557569;28;20048;-85
2022/12/18 13:21:40;;;;;;;6.32;3.20;;;-0.50;99.90;;;;;;12550504;28;20045;-85
2022/12/18 13:27:53;;;;;;;6.45;2.88;;;-0.40;99.90;;;;;;12571661;28;20206;-85
2022/12/18 13:34:27;;;;;;;8.80;3.80;;;-0.50;99.90;;;;;;12491853;28;20044;-85
2022/12/18 13:40:39;;;;;;;7.53;2.75;;;-0.40;99.90;;;;;;12480174;28;20045;-86
2022/12/18 13:46:44;;;;;;;7.40;3.70;;;-0.40;99.90;;;;;;12497499;28;20517;-85
2022/12/18 13:52:47;;;;;;;7.82;3.35;;;-0.40;99.90;;;;;;12505319;28;20654;-85
2022/12/18 13:59:13;;;;;;;5.47;2.50;;;-0.20;99.90;;;;;;12493452;28;20056;-85
2022/12/18 14:05:24;;;;;;;5.45;2.90;;;-0.20;99.90;;;;;;12493185;28;20053;-85
2022/12/18 14:11:26;;;;;;;4.13;2.15;;;-0.20;99.90;;;;;;12476937;28;20060;-85
2022/12/18 14:17:31;;;;;;;6.60;3.10;;;-0.10;99.90;;;;;;12491100;28;20046;-86
2022/12/18 14:23:38;;;;;;;5.90;3.13;;;-0.20;99.90;;;;;;12507365;28;20266;-85
2022/12/18 14:29:43;;;;;;;7.70;3.20;;;-0.20;99.90;;;;;;12508751;28;20076;-86
2022/12/18 14:35:56;;;;;;;6.35;2.75;;;-0.30;99.90;;;;;;12567877;28;20040;-86
2022/12/18 14:41:58;;;;;;;7.03;3.15;;;-0.30;99.90;;;;;;12562451;28;20055;-85
2022/12/18 14:48:00;;;;;;;8.10;3.30;;;-0.40;99.90;;;;;;12590436;28;20412;-86
2022/12/18 14:54:08;;;;;;;8.15;3.33;;;-0.40;99.90;;;;;;12591627;28;20531;-85
2022/12/18 15:00:23;;;;;;;6.00;3.38;;;-0.30;99.90;;;;;;12578558;28;20045;-85
2022/12/18 15:06:37;;;;;;;8.98;3.80;;;-0.40;99.90;;;;;;12569370;28;20052;-86
2022/12/18 15:12:49;;;;;;;7.43;3.40;;;-0.40;99.90;;;;;;12587520;28;20041;-86
2022/12/18 15:18:51;;;;;;;8.68;3.78;;;-0.40;99.90;;;;;;12579213;28;20068;-86
2022/12/18 15:24:54;;;;;;;7.38;3.63;;;-0.40;99.90;;;;;;12572414;28;20047;-86
2022/12/18 15:31:22;;;;;;;8.82;3.70;;;-0.40;99.90;;;;;;12586213;28;20048;-85
2022/12/18 15:37:24;;;;;;;8.38;4.13;;;-0.40;99.90;;;;;;12593041;28;20052;-85
2022/12/18 15:43:36;;;;;;;8.73;4.07;;;-0.50;99.90;;;;;;12567518;28;20045;-86
2022/12/18 15:49:39;;;;;;;9.55;4.47;;;-0.50;99.90;;;;;;12586288;28;20412;-85
2022/12/18 16:02:02;;;;;;;9.20;4.25;;;-0.50;99.90;;;;;;12572656;28;20037;-85
2022/12/18 16:08:04;;;;;;;11.05;4.95;;;-0.50;99.90;;;;;;12580666;28;20041;-85
2022/12/18 16:14:19;;;;;;;10.48;5.00;;;-0.60;99.90;;;;;;12592481;28;20404;-85
2022/12/18 16:20:22;;;;;;;10.13;4.63;;;-0.50;99.90;;;;;;12576483;28;20056;-86
2022/12/18 16:26:23;;;;;;;9.75;5.18;;;-0.60;99.90;;;;;;12584497;28;20052;-85
2022/12/18 16:32:25;;;;;;;10.32;4.57;;;-0.60;99.90;;;;;;12582878;28;20044;-85
2022/12/18 16:38:28;;;;;;;8.52;4.70;;;-0.50;99.90;;;;;;12565776;28;20388;-85
2022/12/18 16:44:30;;;;;;;9.93;5.15;;;-0.60;99.90;;;;;;12572665;28;20044;-86
2022/12/18 16:50:31;;;;;;;10.27;5.43;;;-0.60;99.90;;;;;;12590992;28;20044;-86
2022/12/18 16:56:33;;;;;;;9.80;5.25;;;-0.70;99.90;;;;;;12587570;28;21500;-85
2022/12/18 17:02:35;;;;;;;11.43;5.43;;;-0.70;99.90;;;;;;12579835;28;20045;-86
2022/12/18 17:08:37;;;;;;;13.20;5.78;;;-0.50;99.90;;;;;;12579649;28;20072;-86
2022/12/18 17:14:39;;;;;;;11.77;5.93;;;-0.60;99.90;;;;;;12565370;28;20127;-85
2022/12/18 17:20:41;;;;;;;13.43;5.60;;;-0.50;99.90;;;;;;12561863;28;20041;-85
2022/12/18 17:26:44;;;;;;;8.95;4.97;;;-0.50;99.90;;;;;;12578288;28;20067;-85
2022/12/18 17:32:47;;;;;;;12.88;6.32;;;-0.50;99.90;;;;;;12584917;28;20634;-85
2022/12/18 17:38:54;;;;;;;10.20;5.72;;;-0.40;99.90;;;;;;12575809;28;20060;-85
2022/12/18 17:44:56;;;;;;;13.10;5.80;;;-0.40;99.90;;;;;;12572234;28;20052;-86
2022/12/18 17:51:02;;;;;;;12.38;6.18;;;-0.40;99.90;;;;;;12590548;28;20497;-86
2022/12/18 17:57:04;;;;;;;13.02;5.80;;;-0.40;99.90;;;;;;12584495;28;20044;-85
2022/12/18 18:03:06;;;;;;;14.43;6.50;;;-0.50;99.90;;;;;;12579257;28;20044;-87
2022/12/18 18:09:09;;;;;;;17.55;6.47;;;-0.40;99.90;;;;;;12566830;28;20477;-85
2022/12/18 18:15:18;;;;;;;12.00;5.82;;;-0.30;99.90;;;;;;12599792;28;20101;-86
2022/12/18 18:21:19;;;;;;;13.50;6.82;;;-0.50;99.90;;;;;;12570868;28;20040;-86
2022/12/18 18:27:21;;;;;;;17.27;6.97;;;-0.50;99.90;;;;;;12586278;28;20064;-86
2022/12/18 18:33:23;;;;;;;14.52;7.28;;;-0.50;99.90;;;;;;12573144;28;20049;-86
2022/12/18 18:39:26;;;;;;;12.98;6.93;;;-0.60;99.90;;;;;;12574879;28;20044;-85
2022/12/18 18:45:28;;;;;;;12.35;6.70;;;-0.60;99.90;;;;;;12617290;28;20188;-85
2022/12/18 18:51:30;;;;;;;12.77;6.88;;;-0.50;99.90;;;;;;12585012;28;20043;-84
2022/12/18 18:57:35;;;;;;;14.15;7.20;;;-0.50;99.90;;;;;;12572099;28;20052;-85
2022/12/18 19:03:38;;;;;;;14.02;6.80;;;-0.60;99.90;;;;;;12570282;28;20055;-85
2022/12/18 19:09:40;;;;;;;16.17;6.82;;;-0.60;99.90;;;;;;12572219;28;20048;-85
2022/12/18 19:15:42;;;;;;;15.77;7.38;;;-0.60;99.90;;;;;;12563721;28;20036;-85
2022/12/18 19:21:44;;;;;;;14.95;7.45;;;-0.80;99.90;;;;;;12565934;28;20178;-85
2022/12/18 19:27:46;;;;;;;17.20;8.07;;;-0.80;99.90;;;;;;12588533;28;20057;-85
2022/12/18 19:33:47;;;;;;;19.50;8.13;;;-0.90;99.90;;;;;;12569676;28;20051;-85
2022/12/18 19:39:49;;;;;;;20.85;9.13;;;-1.00;99.90;;;;;;12569780;28;20400;-85
2022/12/18 19:45:55;;;;;;;17.88;8.60;;;-1.10;99.90;;;;;;12569877;28;20056;-85
2022/12/18 19:51:57;;;;;;;19.23;9.00;;;-1.10;99.90;;;;;;12591314;28;20051;-85
2022/12/18 19:57:58;;;;;;;20.92;9.63;;;-1.10;99.90;;;;;;12567501;28;20412;-86
2022/12/18 20:04:00;;;;;;;17.85;9.57;;;-1.10;99.90;;;;;;12580194;28;20033;-85
2022/12/18 20:10:08;;;;;;;20.13;9.50;;;-1.10;99.90;;;;;;12578136;28;20044;-85
2022/12/18 20:16:11;;;;;;;24.75;10.57;;;-1.10;99.90;;;;;;12567166;28;20044;-85
2022/12/18 20:22:13;;;;;;;20.88;9.95;;;-1.10;99.90;;;;;;12585570;28;20088;-85
2022/12/18 20:28:15;;;;;;;22.88;10.15;;;-1.10;99.90;;;;;;12555994;28;20057;-85
2022/12/18 20:34:17;;;;;;;21.92;10.07;;;-1.10;99.90;;;;;;12568598;28;20043;-85
2022/12/18 20:40:18;;;;;;;19.48;9.63;;;-1.10;99.90;;;;;;12584939;28;20082;-85
2022/12/18 20:46:20;;;;;;;21.17;10.45;;;-1.10;99.90;;;;;;12563690;28;20060;-85
2022/12/18 20:52:22;;;;;;;23.17;10.68;;;-1.20;99.90;;;;;;12581191;28;20055;-85
2022/12/18 20:58:24;;;;;;;23.15;11.27;;;-1.10;99.90;;;;;;12582497;28;20182;-85
2022/12/18 21:04:26;;;;;;;21.73;11.27;;;-1.10;99.90;;;;;;12588953;28;20032;-85
2022/12/18 21:10:28;;;;;;;20.77;10.13;;;-1.10;99.90;;;;;;12594609;28;20527;-85
2022/12/18 21:16:30;;;;;;;25.40;11.80;;;-1.10;99.90;;;;;;12578285;28;20535;-85
2022/12/18 21:22:35;;;;;;;23.23;10.68;;;-1.10;99.90;;;;;;12590625;28;20044;-86
2022/12/18 21:28:37;;;;;;;25.48;10.90;;;-1.10;99.90;;;;;;12588168;28;20067;-85
2022/12/18 21:34:39;;;;;;;26.30;11.00;;;-1.10;99.90;;;;;;12592724;28;20048;-85
2022/12/18 21:40:48;;;;;;;24.92;11.13;;;-1.10;99.90;;;;;;12586783;28;20048;-85
2022/12/18 21:46:50;;;;;;;24.15;12.07;;;-1.10;99.90;;;;;;12590134;28;20055;-85
2022/12/18 21:53:00;;;;;;;22.17;11.68;;;-1.10;99.90;;;;;;12577168;28;20041;-85
2022/12/18 21:59:02;;;;;;;23.73;11.73;;;-1.10;99.90;;;;;;12584592;28;20045;-85
2022/12/18 22:05:04;;;;;;;24.48;12.07;;;-1.00;99.90;;;;;;12581059;28;20041;-85
2022/12/18 22:11:07;;;;;;;26.30;12.20;;;-1.00;99.90;;;;;;12584210;28;20052;-84
2022/12/18 22:17:09;;;;;;;26.15;11.77;;;-1.10;99.90;;;;;;12591551;28;20045;-85
2022/12/18 22:23:12;;;;;;;25.52;12.32;;;-1.00;99.90;;;;;;12583467;28;20523;-85
2022/12/18 22:35:36;;;;;;;26.05;11.77;;;-1.10;99.90;;;;;;12586142;28;20041;-84
2022/12/18 22:41:41;;;;;;;24.80;11.82;;;-1.00;99.90;;;;;;12562290;28;20045;-84
2022/12/18 22:47:43;;;;;;;24.10;12.35;;;-1.00;99.90;;;;;;12588109;28;20105;-85
2022/12/18 22:53:45;;;;;;;26.52;12.52;;;-0.90;99.90;;;;;;12574575;28;20386;-85
2022/12/18 22:59:49;;;;;;;23.97;10.90;;;-0.90;99.90;;;;;;12589201;28;20393;-85
2022/12/18 23:05:51;;;;;;;24.98;12.15;;;-0.80;99.90;;;;;;12584537;28;20040;-84
2022/12/18 23:11:55;;;;;;;29.17;12.90;;;-0.80;99.90;;;;;;12580383;28;20400;-85
2022/12/18 23:17:58;;;;;;;25.10;12.10;;;-0.80;99.90;;;;;;12561302;28;20501;-85
2022/12/18 23:24:00;;;;;;;28.42;12.60;;;-0.70;99.90;;;;;;12582581;28;20603;-84
2022/12/18 23:30:02;;;;;;;28.13;13.35;;;-0.70;99.90;;;;;;12568947;28;20060;-84
2022/12/18 23:36:04;;;;;;;25.05;13.00;;;-0.60;99.90;;;;;;12571079;28;20040;-85
2022/12/18 23:42:06;;;;;;;27.23;12.40;;;-0.70;99.90;;;;;;12566973;28;20048;-85
2022/12/18 23:48:08;;;;;;;33.38;15.90;;;-0.80;99.90;;;;;;12596055;28;20056;-85
2022/12/18 23:54:10;;;;;;;28.98;14.40;;;-0.70;99.90;;;;;;12580175;28;20080;-84
